sensor_id;sensor_type;location;lat;lon;timestamp;pressure;altitude;pressure_sealevel;temperature;humidity
17855;BME280;9053;53.358;6.382;2023-04-04T00:00:27;103157.94;;;4.59;83.13
17855;BME280;9053;53.358;6.382;2023-04-04T00:02:58;103147.50;;;4.59;83.43
17855;BME280;9053;53.358;6.382;2023-04-04T00:05:31;103147.50;;;4.59;83.45
17855;BME280;9053;53.358;6.382;2023-04-04T00:08:01;103146.59;;;4.59;83.30
17855;BME280;9053;53.358;6.382;2023-04-04T00:10:31;103141.84;;;4.54;83.46
17855;BME280;9053;53.358;6.382;2023-04-04T00:13:01;103145.09;;;4.52;83.38
17855;BME280;9053;53.358;6.382;2023-04-04T00:15:31;103143.13;;;4.49;83.46
17855;BME280;9053;53.358;6.382;2023-04-04T00:18:02;103135.13;;;4.48;83.54
17855;BME280;9053;53.358;6.382;2023-04-04T00:20:35;103132.53;;;4.48;83.52
17855;BME280;9053;53.358;6.382;2023-04-04T00:23:07;103142.22;;;4.40;83.63
17855;BME280;9053;53.358;6.382;2023-04-04T00:25:37;103142.56;;;4.34;83.68
17855;BME280;9053;53.358;6.382;2023-04-04T00:28:07;103134.31;;;4.30;83.65
17855;BME280;9053;53.358;6.382;2023-04-04T00:30:37;103134.47;;;4.31;83.79
17855;BME280;9053;53.358;6.382;2023-04-04T00:33:07;103135.22;;;4.30;83.97
17855;BME280;9053;53.358;6.382;2023-04-04T00:35:40;103134.19;;;4.28;83.99
17855;BME280;9053;53.358;6.382;2023-04-04T00:38:10;103128.66;;;4.25;83.95
17855;BME280;9053;53.358;6.382;2023-04-04T00:40:41;103131.88;;;4.23;84.18
17855;BME280;9053;53.358;6.382;2023-04-04T00:43:11;103130.81;;;4.21;84.37
17855;BME280;9053;53.358;6.382;2023-04-04T00:45:41;103135.88;;;4.19;84.45
17855;BME280;9053;53.358;6.382;2023-04-04T00:48:12;103134.66;;;4.16;84.53
17855;BME280;9053;53.358;6.382;2023-04-04T00:50:44;103125.81;;;4.14;84.68
17855;BME280;9053;53.358;6.382;2023-04-04T00:53:14;103129.16;;;4.12;84.62
17855;BME280;9053;53.358;6.382;2023-04-04T00:55:49;103130.56;;;4.09;84.87
17855;BME280;9053;53.358;6.382;2023-04-04T00:58:19;103130.56;;;4.09;85.02
17855;BME280;9053;53.358;6.382;2023-04-04T01:00:49;103129.50;;;4.07;85.15
17855;BME280;9053;53.358;6.382;2023-04-04T01:03:21;103130.91;;;4.03;85.14
17855;BME280;9053;53.358;6.382;2023-04-04T01:05:54;103130.44;;;3.99;85.35
17855;BME280;9053;53.358;6.382;2023-04-04T01:08:25;103131.97;;;3.97;85.32
17855;BME280;9053;53.358;6.382;2023-04-04T01:10:57;103131.53;;;3.92;85.55
17855;BME280;9053;53.358;6.382;2023-04-04T01:13:30;103137.53;;;3.91;85.79
17855;BME280;9053;53.358;6.382;2023-04-04T01:16:00;103135.38;;;3.87;85.81
17855;BME280;9053;53.358;6.382;2023-04-04T01:18:33;103137.06;;;3.86;85.78
17855;BME280;9053;53.358;6.382;2023-04-04T01:21:10;103136.28;;;3.87;86.10
17855;BME280;9053;53.358;6.382;2023-04-04T01:23:48;103124.97;;;3.87;86.06
17855;BME280;9053;53.358;6.382;2023-04-04T01:26:22;103123.13;;;3.86;86.25
17855;BME280;9053;53.358;6.382;2023-04-04T01:28:56;103109.19;;;3.85;86.37
17855;BME280;9053;53.358;6.382;2023-04-04T01:31:28;103115.47;;;3.87;86.52
17855;BME280;9053;53.358;6.382;2023-04-04T01:34:08;103115.31;;;3.86;86.63
17855;BME280;9053;53.358;6.382;2023-04-04T01:36:42;103113.63;;;3.86;86.73
17855;BME280;9053;53.358;6.382;2023-04-04T01:39:17;103118.69;;;3.85;86.98
17855;BME280;9053;53.358;6.382;2023-04-04T01:41:53;103119.28;;;3.82;86.95
17855;BME280;9053;53.358;6.382;2023-04-04T01:44:24;103112.72;;;3.77;87.00
17855;BME280;9053;53.358;6.382;2023-04-04T01:46:55;103113.34;;;3.75;87.13
17855;BME280;9053;53.358;6.382;2023-04-04T01:49:25;103110.63;;;3.73;87.18
17855;BME280;9053;53.358;6.382;2023-04-04T01:51:55;103118.09;;;3.70;87.23
17855;BME280;9053;53.358;6.382;2023-04-04T01:54:26;103104.94;;;3.68;87.21
17855;BME280;9053;53.358;6.382;2023-04-04T01:57:00;103109.25;;;3.68;87.18
17855;BME280;9053;53.358;6.382;2023-04-04T01:59:30;103100.06;;;3.63;87.37
17855;BME280;9053;53.358;6.382;2023-04-04T02:02:00;103107.88;;;3.63;87.36
17855;BME280;9053;53.358;6.382;2023-04-04T02:04:30;103105.13;;;3.61;87.35
17855;BME280;9053;53.358;6.382;2023-04-04T02:07:00;103113.53;;;3.59;87.48
17855;BME280;9053;53.358;6.382;2023-04-04T02:09:30;103102.84;;;3.56;87.38
17855;BME280;9053;53.358;6.382;2023-04-04T02:12:02;103106.97;;;3.54;87.43
17855;BME280;9053;53.358;6.382;2023-04-04T02:14:32;103104.81;;;3.50;87.49
17855;BME280;9053;53.358;6.382;2023-04-04T02:17:03;103103.00;;;3.49;87.53
17855;BME280;9053;53.358;6.382;2023-04-04T02:19:36;103099.31;;;3.46;87.32
17855;BME280;9053;53.358;6.382;2023-04-04T02:22:06;103102.53;;;3.44;87.37
17855;BME280;9053;53.358;6.382;2023-04-04T02:24:36;103102.38;;;3.42;87.51
17855;BME280;9053;53.358;6.382;2023-04-04T02:27:08;103109.88;;;3.39;87.62
17855;BME280;9053;53.358;6.382;2023-04-04T02:29:38;103107.75;;;3.35;87.50
17855;BME280;9053;53.358;6.382;2023-04-04T02:32:08;103097.66;;;3.30;87.40
17855;BME280;9053;53.358;6.382;2023-04-04T02:34:38;103103.94;;;3.23;87.53
17855;BME280;9053;53.358;6.382;2023-04-04T02:37:11;103103.59;;;3.20;87.54
17855;BME280;9053;53.358;6.382;2023-04-04T02:39:40;103115.56;;;3.18;87.50
17855;BME280;9053;53.358;6.382;2023-04-04T02:42:13;103112.97;;;3.18;87.53
17855;BME280;9053;53.358;6.382;2023-04-04T02:44:43;103114.50;;;3.16;87.57
17855;BME280;9053;53.358;6.382;2023-04-04T02:47:12;103124.91;;;3.16;87.64
17855;BME280;9053;53.358;6.382;2023-04-04T02:49:42;103107.91;;;3.11;87.65
17855;BME280;9053;53.358;6.382;2023-04-04T02:52:12;103107.63;;;3.08;87.62
17855;BME280;9053;53.358;6.382;2023-04-04T02:54:42;103110.97;;;3.07;87.59
17855;BME280;9053;53.358;6.382;2023-04-04T02:57:15;103111.75;;;3.06;87.68
17855;BME280;9053;53.358;6.382;2023-04-04T02:59:46;103099.34;;;3.03;87.69
17855;BME280;9053;53.358;6.382;2023-04-04T03:02:18;103092.16;;;3.00;87.55
17855;BME280;9053;53.358;6.382;2023-04-04T03:04:47;103093.69;;;2.98;87.48
17855;BME280;9053;53.358;6.382;2023-04-04T03:07:17;103095.38;;;2.98;87.54
17855;BME280;9053;53.358;6.382;2023-04-04T03:09:48;103089.88;;;2.95;87.73
17855;BME280;9053;53.358;6.382;2023-04-04T03:12:21;103094.91;;;2.93;87.54
17855;BME280;9053;53.358;6.382;2023-04-04T03:14:51;103093.06;;;2.92;87.63
17855;BME280;9053;53.358;6.382;2023-04-04T03:17:21;103086.03;;;2.91;87.65
17855;BME280;9053;53.358;6.382;2023-04-04T03:19:51;103093.66;;;2.90;87.44
17855;BME280;9053;53.358;6.382;2023-04-04T03:22:21;103098.72;;;2.88;87.60
17855;BME280;9053;53.358;6.382;2023-04-04T03:24:51;103093.34;;;2.87;87.42
17855;BME280;9053;53.358;6.382;2023-04-04T03:27:24;103087.25;;;2.86;87.51
17855;BME280;9053;53.358;6.382;2023-04-04T03:29:53;103086.03;;;2.83;87.55
17855;BME280;9053;53.358;6.382;2023-04-04T03:32:26;103079.91;;;2.82;87.50
17855;BME280;9053;53.358;6.382;2023-04-04T03:34:55;103083.09;;;2.79;87.40
17855;BME280;9053;53.358;6.382;2023-04-04T03:37:25;103087.38;;;2.79;87.45
17855;BME280;9053;53.358;6.382;2023-04-04T03:39:55;103086.47;;;2.78;87.41
17855;BME280;9053;53.358;6.382;2023-04-04T03:42:32;103096.88;;;2.78;87.62
17855;BME280;9053;53.358;6.382;2023-04-04T03:45:01;103088.00;;;2.76;87.56
17855;BME280;9053;53.358;6.382;2023-04-04T03:47:31;103085.25;;;2.75;87.68
17855;BME280;9053;53.358;6.382;2023-04-04T03:50:01;103084.19;;;2.73;87.52
17855;BME280;9053;53.358;6.382;2023-04-04T03:52:31;103084.03;;;2.71;87.62
17855;BME280;9053;53.358;6.382;2023-04-04T03:55:01;103086.47;;;2.70;87.57
17855;BME280;9053;53.358;6.382;2023-04-04T03:57:33;103082.03;;;2.69;87.57
17855;BME280;9053;53.358;6.382;2023-04-04T04:00:05;103081.91;;;2.67;87.58
17855;BME280;9053;53.358;6.382;2023-04-04T04:02:34;103078.03;;;2.64;87.56
17855;BME280;9053;53.358;6.382;2023-04-04T04:05:05;103084.94;;;2.63;87.49
17855;BME280;9053;53.358;6.382;2023-04-04T04:07:36;103075.31;;;2.62;87.70
17855;BME280;9053;53.358;6.382;2023-04-04T04:10:06;103079.56;;;2.62;87.57
17855;BME280;9053;53.358;6.382;2023-04-04T04:12:39;103074.38;;;2.62;87.70
17855;BME280;9053;53.358;6.382;2023-04-04T04:15:09;103070.69;;;2.59;87.71
17855;BME280;9053;53.358;6.382;2023-04-04T04:17:39;103079.25;;;2.58;87.47
17855;BME280;9053;53.358;6.382;2023-04-04T04:20:09;103074.97;;;2.59;87.75
17855;BME280;9053;53.358;6.382;2023-04-04T04:22:44;103078.47;;;2.59;87.67
17855;BME280;9053;53.358;6.382;2023-04-04T04:25:14;103077.75;;;2.60;87.73
17855;BME280;9053;53.358;6.382;2023-04-04T04:27:47;103074.06;;;2.58;87.62
17855;BME280;9053;53.358;6.382;2023-04-04T04:30:17;103070.56;;;2.58;87.57
17855;BME280;9053;53.358;6.382;2023-04-04T04:32:48;103074.84;;;2.57;87.75
17855;BME280;9053;53.358;6.382;2023-04-04T04:35:18;103072.97;;;2.56;87.75
17855;BME280;9053;53.358;6.382;2023-04-04T04:37:47;103073.91;;;2.57;87.72
17855;BME280;9053;53.358;6.382;2023-04-04T04:40:19;103072.97;;;2.56;87.67
17855;BME280;9053;53.358;6.382;2023-04-04T04:42:51;103073.28;;;2.59;87.75
17855;BME280;9053;53.358;6.382;2023-04-04T04:45:21;103069.94;;;2.60;87.71
17855;BME280;9053;53.358;6.382;2023-04-04T04:47:51;103076.97;;;2.62;87.65
17855;BME280;9053;53.358;6.382;2023-04-04T04:50:21;103079.56;;;2.62;87.85
17855;BME280;9053;53.358;6.382;2023-04-04T04:52:52;103088.31;;;2.62;87.79
17855;BME280;9053;53.358;6.382;2023-04-04T04:55:22;103090.25;;;2.56;87.65
17855;BME280;9053;53.358;6.382;2023-04-04T04:57:55;103089.78;;;2.51;87.83
17855;BME280;9053;53.358;6.382;2023-04-04T05:00:25;103092.97;;;2.49;87.77
17855;BME280;9053;53.358;6.382;2023-04-04T05:02:54;103096.19;;;2.46;87.72
17855;BME280;9053;53.358;6.382;2023-04-04T05:05:26;103095.88;;;2.43;87.71
17855;BME280;9053;53.358;6.382;2023-04-04T05:07:56;103099.25;;;2.42;87.84
17855;BME280;9053;53.358;6.382;2023-04-04T05:10:26;103095.41;;;2.38;87.74
17855;BME280;9053;53.358;6.382;2023-04-04T05:12:58;103096.31;;;2.39;87.77
17855;BME280;9053;53.358;6.382;2023-04-04T05:15:29;103096.00;;;2.36;87.91
17855;BME280;9053;53.358;6.382;2023-04-04T05:17:59;103099.84;;;2.40;87.93
17855;BME280;9053;53.358;6.382;2023-04-04T05:20:30;103107.19;;;2.44;87.97
17855;BME280;9053;53.358;6.382;2023-04-04T05:23:00;103102.63;;;2.50;88.08
17855;BME280;9053;53.358;6.382;2023-04-04T05:25:30;103106.75;;;2.56;87.98
17855;BME280;9053;53.358;6.382;2023-04-04T05:28:02;103115.03;;;2.61;87.99
17855;BME280;9053;53.358;6.382;2023-04-04T05:30:33;103117.03;;;2.64;88.21
17855;BME280;9053;53.358;6.382;2023-04-04T05:33:05;103104.34;;;2.67;88.05
17855;BME280;9053;53.358;6.382;2023-04-04T05:35:35;103103.28;;;2.73;88.16
17855;BME280;9053;53.358;6.382;2023-04-04T05:38:04;103103.28;;;2.82;88.11
17855;BME280;9053;53.358;6.382;2023-04-04T05:40:35;103099.03;;;2.91;88.38
17855;BME280;9053;53.358;6.382;2023-04-04T05:43:08;103096.28;;;2.98;88.39
17855;BME280;9053;53.358;6.382;2023-04-04T05:45:38;103098.44;;;3.11;88.48
17855;BME280;9053;53.358;6.382;2023-04-04T05:48:08;103098.44;;;3.29;88.59
17855;BME280;9053;53.358;6.382;2023-04-04T05:50:39;103097.50;;;3.45;88.81
17855;BME280;9053;53.358;6.382;2023-04-04T05:53:08;103097.94;;;3.59;88.97
17855;BME280;9053;53.358;6.382;2023-04-04T05:55:38;103092.25;;;3.63;88.84
17855;BME280;9053;53.358;6.382;2023-04-04T05:58:11;103097.91;;;3.67;88.80
17855;BME280;9053;53.358;6.382;2023-04-04T06:00:42;103096.38;;;3.78;88.82
17855;BME280;9053;53.358;6.382;2023-04-04T06:03:12;103092.13;;;3.98;88.79
17855;BME280;9053;53.358;6.382;2023-04-04T06:05:49;103086.97;;;4.25;89.06
17855;BME280;9053;53.358;6.382;2023-04-04T06:08:20;103099.00;;;4.42;89.10
17855;BME280;9053;53.358;6.382;2023-04-04T06:10:51;103088.50;;;4.51;88.97
17855;BME280;9053;53.358;6.382;2023-04-04T06:13:24;103101.34;;;4.58;88.91
17855;BME280;9053;53.358;6.382;2023-04-04T06:15:54;103102.22;;;4.67;88.73
17855;BME280;9053;53.358;6.382;2023-04-04T06:18:24;103099.63;;;4.86;88.85
17855;BME280;9053;53.358;6.382;2023-04-04T06:20:54;103102.91;;;5.03;88.80
17855;BME280;9053;53.358;6.382;2023-04-04T06:23:24;103100.19;;;5.11;88.70
17855;BME280;9053;53.358;6.382;2023-04-04T06:25:54;103102.59;;;5.18;88.48
17855;BME280;9053;53.358;6.382;2023-04-04T06:28:26;103102.88;;;5.21;88.28
17855;BME280;9053;53.358;6.382;2023-04-04T06:30:57;103099.50;;;5.23;88.01
17855;BME280;9053;53.358;6.382;2023-04-04T06:33:27;103089.06;;;5.23;87.79
17855;BME280;9053;53.358;6.382;2023-04-04T06:35:57;103094.94;;;5.20;87.47
17855;BME280;9053;53.358;6.382;2023-04-04T06:38:27;103097.97;;;5.25;87.23
17855;BME280;9053;53.358;6.382;2023-04-04T06:40:57;103100.63;;;5.35;87.19
17855;BME280;9053;53.358;6.382;2023-04-04T06:43:29;103103.72;;;5.50;87.08
17855;BME280;9053;53.358;6.382;2023-04-04T06:45:59;103105.47;;;5.59;86.96
17855;BME280;9053;53.358;6.382;2023-04-04T06:48:29;103114.34;;;5.61;86.72
17855;BME280;9053;53.358;6.382;2023-04-04T06:50:59;103102.97;;;5.61;86.60
17855;BME280;9053;53.358;6.382;2023-04-04T06:53:29;103107.28;;;5.60;86.32
17855;BME280;9053;53.358;6.382;2023-04-04T06:56:00;103105.47;;;5.59;86.11
17855;BME280;9053;53.358;6.382;2023-04-04T06:58:33;103101.47;;;5.73;86.11
17855;BME280;9053;53.358;6.382;2023-04-04T07:01:04;103106.50;;;5.91;86.03
17855;BME280;9053;53.358;6.382;2023-04-04T07:03:38;103105.13;;;6.04;85.95
17855;BME280;9053;53.358;6.382;2023-04-04T07:06:10;103094.59;;;6.13;85.69
17855;BME280;9053;53.358;6.382;2023-04-04T07:08:40;103088.84;;;6.17;85.51
17855;BME280;9053;53.358;6.382;2023-04-04T07:11:10;103082.72;;;6.27;85.16
17855;BME280;9053;53.358;6.382;2023-04-04T07:13:43;103085.66;;;6.50;85.03
17855;BME280;9053;53.358;6.382;2023-04-04T07:16:13;103080.66;;;6.74;84.99
17855;BME280;9053;53.358;6.382;2023-04-04T07:18:42;103084.06;;;6.93;84.97
17855;BME280;9053;53.358;6.382;2023-04-04T07:21:12;103085.63;;;7.02;84.58
17855;BME280;9053;53.358;6.382;2023-04-04T07:23:43;103085.84;;;7.15;84.32
17855;BME280;9053;53.358;6.382;2023-04-04T07:26:13;103090.69;;;7.31;83.99
17855;BME280;9053;53.358;6.382;2023-04-04T07:28:45;103081.19;;;7.43;83.63
17855;BME280;9053;53.358;6.382;2023-04-04T07:31:15;103082.09;;;7.54;83.22
17855;BME280;9053;53.358;6.382;2023-04-04T07:33:45;103079.19;;;7.61;82.74
17855;BME280;9053;53.358;6.382;2023-04-04T07:36:18;103073.34;;;7.75;82.29
17855;BME280;9053;53.358;6.382;2023-04-04T07:38:48;103072.09;;;7.92;82.06
17855;BME280;9053;53.358;6.382;2023-04-04T07:41:18;103071.06;;;8.12;81.63
17855;BME280;9053;53.358;6.382;2023-04-04T07:43:51;103071.84;;;8.33;81.38
17855;BME280;9053;53.358;6.382;2023-04-04T07:46:21;103066.91;;;8.48;80.97
17855;BME280;9053;53.358;6.382;2023-04-04T07:48:51;103067.63;;;8.57;80.59
17855;BME280;9053;53.358;6.382;2023-04-04T07:51:21;103064.69;;;8.64;80.01
17855;BME280;9053;53.358;6.382;2023-04-04T07:53:55;103066.28;;;8.74;79.62
17855;BME280;9053;53.358;6.382;2023-04-04T07:56:25;103057.91;;;8.90;79.01
17855;BME280;9053;53.358;6.382;2023-04-04T07:58:58;103060.19;;;9.09;78.57
17855;BME280;9053;53.358;6.382;2023-04-04T08:01:28;103065.31;;;9.19;78.03
17855;BME280;9053;53.358;6.382;2023-04-04T08:03:59;103053.47;;;9.36;77.41
17855;BME280;9053;53.358;6.382;2023-04-04T08:06:29;103049.09;;;9.60;76.87
17855;BME280;9053;53.358;6.382;2023-04-04T08:08:59;103053.28;;;9.70;76.30
17855;BME280;9053;53.358;6.382;2023-04-04T08:11:29;103051.81;;;9.85;75.86
17855;BME280;9053;53.358;6.382;2023-04-04T08:14:02;103049.25;;;9.99;75.23
17855;BME280;9053;53.358;6.382;2023-04-04T08:16:33;103050.91;;;10.10;74.57
17855;BME280;9053;53.358;6.382;2023-04-04T08:19:06;103053.72;;;10.13;73.99
17855;BME280;9053;53.358;6.382;2023-04-04T08:21:36;103052.75;;;10.11;73.30
17855;BME280;9053;53.358;6.382;2023-04-04T08:24:07;103049.50;;;10.15;72.75
17855;BME280;9053;53.358;6.382;2023-04-04T08:26:36;103050.28;;;10.26;72.32
17855;BME280;9053;53.358;6.382;2023-04-04T08:29:11;103054.72;;;10.38;72.12
17855;BME280;9053;53.358;6.382;2023-04-04T08:31:47;103057.72;;;10.56;71.84
17855;BME280;9053;53.358;6.382;2023-04-04T08:34:17;103057.03;;;10.72;71.62
17855;BME280;9053;53.358;6.382;2023-04-04T08:36:53;103051.59;;;10.82;71.00
17855;BME280;9053;53.358;6.382;2023-04-04T08:39:23;103051.78;;;10.86;70.33
17855;BME280;9053;53.358;6.382;2023-04-04T08:41:59;103053.25;;;10.94;69.89
17855;BME280;9053;53.358;6.382;2023-04-04T08:44:34;103049.91;;;11.10;69.52
17855;BME280;9053;53.358;6.382;2023-04-04T08:47:06;103039.50;;;11.24;69.04
17855;BME280;9053;53.358;6.382;2023-04-04T08:49:39;103033.59;;;11.29;68.54
17855;BME280;9053;53.358;6.382;2023-04-04T08:52:14;103041.00;;;11.21;67.93
17855;BME280;9053;53.358;6.382;2023-04-04T08:54:50;103031.56;;;11.11;67.11
17855;BME280;9053;53.358;6.382;2023-04-04T08:57:20;103029.34;;;11.04;66.63
17855;BME280;9053;53.358;6.382;2023-04-04T08:59:52;103033.47;;;11.00;66.30
17855;BME280;9053;53.358;6.382;2023-04-04T09:02:28;103036.94;;;10.99;65.82
17855;BME280;9053;53.358;6.382;2023-04-04T09:04:59;103037.72;;;10.98;65.58
17855;BME280;9053;53.358;6.382;2023-04-04T09:07:33;103038.66;;;10.99;65.20
17855;BME280;9053;53.358;6.382;2023-04-04T09:10:07;103041.00;;;11.08;65.12
17855;BME280;9053;53.358;6.382;2023-04-04T09:12:41;103034.50;;;11.16;64.99
17855;BME280;9053;53.358;6.382;2023-04-04T09:15:16;103034.22;;;11.24;64.78
17855;BME280;9053;53.358;6.382;2023-04-04T09:17:46;103029.06;;;11.39;64.61
17855;BME280;9053;53.358;6.382;2023-04-04T09:20:37;103024.13;;;11.59;64.60
17855;BME280;9053;53.358;6.382;2023-04-04T09:23:09;103031.63;;;11.79;64.45
17855;BME280;9053;53.358;6.382;2023-04-04T09:25:44;103031.91;;;11.97;64.39
17855;BME280;9053;53.358;6.382;2023-04-04T09:28:19;103029.66;;;12.03;64.06
17855;BME280;9053;53.358;6.382;2023-04-04T09:30:54;103037.75;;;12.06;63.81
17855;BME280;9053;53.358;6.382;2023-04-04T09:33:24;103032.28;;;12.03;63.38
17855;BME280;9053;53.358;6.382;2023-04-04T09:35:56;103025.63;;;11.95;63.06
17855;BME280;9053;53.358;6.382;2023-04-04T09:38:28;103027.63;;;11.86;62.86
17855;BME280;9053;53.358;6.382;2023-04-04T09:40:58;103031.63;;;11.79;62.36
17855;BME280;9053;53.358;6.382;2023-04-04T09:43:29;103023.31;;;11.73;62.29
17855;BME280;9053;53.358;6.382;2023-04-04T09:46:04;103033.31;;;11.79;62.32
17855;BME280;9053;53.358;6.382;2023-04-04T09:48:34;103025.22;;;11.76;62.13
17855;BME280;9053;53.358;6.382;2023-04-04T09:51:08;103018.22;;;11.76;61.81
17855;BME280;9053;53.358;6.382;2023-04-04T09:53:40;103029.66;;;11.77;61.71
17855;BME280;9053;53.358;6.382;2023-04-04T09:56:10;103021.81;;;11.63;61.45
17855;BME280;9053;53.358;6.382;2023-04-04T09:58:40;103021.34;;;11.42;61.13
17855;BME280;9053;53.358;6.382;2023-04-04T10:01:32;103018.28;;;11.36;61.12
17855;BME280;9053;53.358;6.382;2023-04-04T10:04:10;103016.16;;;11.31;61.07
17855;BME280;9053;53.358;6.382;2023-04-04T10:06:42;103020.94;;;11.23;60.94
17855;BME280;9053;53.358;6.382;2023-04-04T10:09:14;103020.34;;;11.14;60.94
17855;BME280;9053;53.358;6.382;2023-04-04T10:11:44;103022.25;;;11.03;60.89
17855;BME280;9053;53.358;6.382;2023-04-04T10:14:15;103018.72;;;10.89;60.82
17855;BME280;9053;53.358;6.382;2023-04-04T10:16:47;103014.03;;;10.85;60.77
17855;BME280;9053;53.358;6.382;2023-04-04T10:19:17;103013.94;;;10.83;60.85
17855;BME280;9053;53.358;6.382;2023-04-04T10:21:48;103015.56;;;10.81;60.79
17855;BME280;9053;53.358;6.382;2023-04-04T10:24:18;103018.47;;;10.73;60.86
17855;BME280;9053;53.358;6.382;2023-04-04T10:26:52;103013.91;;;10.70;60.80
17855;BME280;9053;53.358;6.382;2023-04-04T10:29:22;103010.38;;;10.70;60.87
17855;BME280;9053;53.358;6.382;2023-04-04T10:32:01;103014.72;;;10.69;60.97
17855;BME280;9053;53.358;6.382;2023-04-04T10:34:38;103017.41;;;10.57;60.95
17855;BME280;9053;53.358;6.382;2023-04-04T10:37:14;103001.22;;;10.51;60.97
17855;BME280;9053;53.358;6.382;2023-04-04T10:39:50;102993.03;;;10.60;61.01
17855;BME280;9053;53.358;6.382;2023-04-04T10:42:21;102996.63;;;10.74;61.25
17855;BME280;9053;53.358;6.382;2023-04-04T10:44:52;102991.25;;;10.86;61.41
17855;BME280;9053;53.358;6.382;2023-04-04T10:47:32;102985.06;;;10.85;61.33
17855;BME280;9053;53.358;6.382;2023-04-04T10:50:03;102991.03;;;10.82;61.25
17855;BME280;9053;53.358;6.382;2023-04-04T10:52:36;102985.97;;;10.72;61.15
17855;BME280;9053;53.358;6.382;2023-04-04T10:55:11;102981.81;;;10.63;60.92
17855;BME280;9053;53.358;6.382;2023-04-04T10:57:43;102985.63;;;10.54;60.89
17855;BME280;9053;53.358;6.382;2023-04-04T11:00:18;102979.97;;;10.48;60.78
17855;BME280;9053;53.358;6.382;2023-04-04T11:02:56;102982.16;;;10.42;60.60
17855;BME280;9053;53.358;6.382;2023-04-04T11:05:31;102985.72;;;10.43;60.50
17855;BME280;9053;53.358;6.382;2023-04-04T11:08:08;102982.75;;;10.38;60.44
17855;BME280;9053;53.358;6.382;2023-04-04T11:10:41;102976.09;;;10.43;60.42
17855;BME280;9053;53.358;6.382;2023-04-04T11:13:14;102977.63;;;10.39;60.41
17855;BME280;9053;53.358;6.382;2023-04-04T11:15:50;102977.28;;;10.35;60.25
17855;BME280;9053;53.358;6.382;2023-04-04T11:18:46;102973.97;;;10.37;60.35
17855;BME280;9053;53.358;6.382;2023-04-04T11:21:20;102974.97;;;10.39;60.37
17855;BME280;9053;53.358;6.382;2023-04-04T11:24:12;102971.66;;;10.42;60.42
17855;BME280;9053;53.358;6.382;2023-04-04T11:26:43;102972.41;;;10.28;60.16
17855;BME280;9053;53.358;6.382;2023-04-04T11:29:49;102970.22;;;10.09;59.84
17855;BME280;9053;53.358;6.382;2023-04-04T11:32:28;102965.91;;;9.97;59.98
17855;BME280;9053;53.358;6.382;2023-04-04T11:35:03;102972.09;;;9.98;59.96
17855;BME280;9053;53.358;6.382;2023-04-04T11:37:42;102960.63;;;9.97;59.94
17855;BME280;9053;53.358;6.382;2023-04-04T11:40:13;102956.78;;;9.92;59.96
17855;BME280;9053;53.358;6.382;2023-04-04T11:42:44;102951.16;;;10.00;60.11
17855;BME280;9053;53.358;6.382;2023-04-04T11:45:24;102953.28;;;10.05;60.24
17855;BME280;9053;53.358;6.382;2023-04-04T11:47:55;102959.00;;;10.11;60.18
17855;BME280;9053;53.358;6.382;2023-04-04T11:50:33;102967.41;;;10.19;60.17
17855;BME280;9053;53.358;6.382;2023-04-04T11:53:06;102952.66;;;10.21;60.23
17855;BME280;9053;53.358;6.382;2023-04-04T11:55:40;102965.59;;;10.18;60.25
17855;BME280;9053;53.358;6.382;2023-04-04T11:58:15;102949.16;;;10.09;60.14
17855;BME280;9053;53.358;6.382;2023-04-04T12:00:46;102952.88;;;9.99;60.04
17855;BME280;9053;53.358;6.382;2023-04-04T12:03:18;102944.97;;;9.99;60.09
17855;BME280;9053;53.358;6.382;2023-04-04T12:05:51;102943.63;;;9.92;60.05
17855;BME280;9053;53.358;6.382;2023-04-04T12:08:21;102944.03;;;9.85;60.19
17855;BME280;9053;53.358;6.382;2023-04-04T12:10:52;102943.91;;;9.84;60.28
17855;BME280;9053;53.358;6.382;2023-04-04T12:13:29;102945.63;;;9.83;60.21
17855;BME280;9053;53.358;6.382;2023-04-04T12:16:02;102929.41;;;9.77;60.04
17855;BME280;9053;53.358;6.382;2023-04-04T12:18:32;102931.84;;;9.74;60.16
17855;BME280;9053;53.358;6.382;2023-04-04T12:21:05;102930.22;;;9.76;60.07
17855;BME280;9053;53.358;6.382;2023-04-04T12:23:35;102922.56;;;9.79;60.17
17855;BME280;9053;53.358;6.382;2023-04-04T12:26:05;102926.41;;;9.84;60.36
17855;BME280;9053;53.358;6.382;2023-04-04T12:28:37;102922.06;;;9.85;60.39
17855;BME280;9053;53.358;6.382;2023-04-04T12:31:07;102925.63;;;9.85;60.42
17855;BME280;9053;53.358;6.382;2023-04-04T12:33:39;102919.69;;;9.88;60.09
17855;BME280;9053;53.358;6.382;2023-04-04T12:36:12;102925.03;;;9.89;60.20
17855;BME280;9053;53.358;6.382;2023-04-04T12:38:56;102921.63;;;9.90;60.24
17855;BME280;9053;53.358;6.382;2023-04-04T12:41:26;102917.97;;;9.88;60.24
17855;BME280;9053;53.358;6.382;2023-04-04T12:44:00;102914.31;;;9.86;60.21
17855;BME280;9053;53.358;6.382;2023-04-04T12:46:34;102915.38;;;9.77;60.16
17855;BME280;9053;53.358;6.382;2023-04-04T12:49:05;102905.22;;;9.69;60.22
17855;BME280;9053;53.358;6.382;2023-04-04T12:51:39;102905.22;;;9.69;60.14
17855;BME280;9053;53.358;6.382;2023-04-04T12:54:24;102897.47;;;9.71;60.41
17855;BME280;9053;53.358;6.382;2023-04-04T12:56:55;102899.28;;;9.72;60.38
17855;BME280;9053;53.358;6.382;2023-04-04T12:59:27;102895.88;;;9.73;60.28
17855;BME280;9053;53.358;6.382;2023-04-04T13:02:00;102893.44;;;9.76;60.49
17855;BME280;9053;53.358;6.382;2023-04-04T13:04:35;102897.69;;;9.74;60.36
17855;BME280;9053;53.358;6.382;2023-04-04T13:07:22;102892.63;;;9.77;60.34
17855;BME280;9053;53.358;6.382;2023-04-04T13:09:54;102890.63;;;9.73;60.36
17855;BME280;9053;53.358;6.382;2023-04-04T13:12:24;102888.56;;;9.69;60.28
17855;BME280;9053;53.358;6.382;2023-04-04T13:14:56;102885.81;;;9.67;60.41
17855;BME280;9053;53.358;6.382;2023-04-04T13:17:40;102882.88;;;9.63;60.30
17855;BME280;9053;53.358;6.382;2023-04-04T13:20:10;102884.84;;;9.53;60.08
17855;BME280;9053;53.358;6.382;2023-04-04T13:22:43;102882.59;;;9.46;60.11
17855;BME280;9053;53.358;6.382;2023-04-04T13:25:13;102879.75;;;9.43;60.08
17855;BME280;9053;53.358;6.382;2023-04-04T13:27:46;102864.50;;;9.38;60.14
17855;BME280;9053;53.358;6.382;2023-04-04T13:30:16;102866.19;;;9.37;60.14
17855;BME280;9053;53.358;6.382;2023-04-04T13:32:46;102866.09;;;9.36;60.12